createdAt,value
2023-02-13T00:02:55.584Z,98222.00
2023-02-13T00:06:58.677Z,98218.00
2023-02-13T00:11:01.890Z,98215.00
2023-02-13T00:15:08.382Z,98219.00
2023-02-13T00:19:15.751Z,98217.00
2023-02-13T00:23:18.774Z,98220.00
2023-02-13T00:27:24.925Z,98214.00
2023-02-13T00:31:30.047Z,98219.00
2023-02-13T00:35:35.024Z,98222.00
2023-02-13T00:39:38.236Z,98216.00
2023-02-13T00:43:41.449Z,98222.00
2023-02-13T00:47:49.700Z,98216.00
2023-02-13T00:52:02.308Z,98217.00
2023-02-13T00:56:08.569Z,98219.00
2023-02-13T01:00:13.750Z,98217.00
2023-02-13T01:04:21.249Z,98218.00
2023-02-13T01:08:28.392Z,98219.00
2023-02-13T01:12:31.823Z,98211.00
2023-02-13T01:16:34.940Z,98215.00
2023-02-13T01:20:38.049Z,98213.00
2023-02-13T01:24:44.155Z,98206.00
2023-02-13T01:28:54.821Z,98203.00
2023-02-13T01:33:00.771Z,98203.00
2023-02-13T01:37:03.828Z,98205.00
2023-02-13T01:41:11.692Z,98205.00
2023-02-13T01:45:26.516Z,98196.00
2023-02-13T01:49:35.875Z,98193.00
2023-02-13T01:53:47.929Z,98199.00
2023-02-13T01:57:57.796Z,98192.00
2023-02-13T02:02:02.462Z,98197.00
2023-02-13T02:06:08.731Z,98200.00
2023-02-13T02:10:17.071Z,98203.00
2023-02-13T02:14:22.085Z,98191.00
2023-02-13T02:18:25.932Z,98195.00
2023-02-13T02:23:08.486Z,98195.00
2023-02-13T02:27:36.948Z,98175.00
2023-02-13T02:32:03.768Z,98176.00
2023-02-13T02:36:24.630Z,98172.00
2023-02-13T02:40:36.008Z,98165.00
2023-02-13T02:44:46.862Z,98167.00
2023-02-13T02:49:15.681Z,98162.00
2023-02-13T02:53:30.594Z,98170.00
2023-02-13T02:57:50.836Z,98167.00
2023-02-13T03:02:13.541Z,98167.00
2023-02-13T03:06:21.664Z,98165.00
2023-02-13T03:10:50.845Z,98171.00
2023-02-13T03:14:53.847Z,98165.00
2023-02-13T03:19:16.342Z,98171.00
2023-02-13T03:23:29.222Z,98167.00
2023-02-13T03:28:02.583Z,98165.00
2023-02-13T03:32:13.214Z,98162.00
2023-02-13T03:36:45.711Z,98169.00
2023-02-13T03:41:11.121Z,98170.00
2023-02-13T03:45:36.387Z,98165.00
2023-02-13T03:50:02.264Z,98168.00
2023-02-13T03:54:17.247Z,98173.00
2023-02-13T03:58:44.951Z,98175.00
2023-02-13T04:03:00.682Z,98179.00
2023-02-13T04:07:13.845Z,98179.00
2023-02-13T04:11:21.815Z,98167.00
2023-02-13T04:15:32.679Z,98170.00
2023-02-13T04:19:39.630Z,98171.00
2023-02-13T04:23:42.612Z,98169.00
2023-02-13T04:27:45.831Z,98173.00
2023-02-13T04:31:50.323Z,98169.00
2023-02-13T04:35:53.440Z,98163.00
2023-02-13T04:39:56.701Z,98173.00
2023-02-13T04:44:00.995Z,98168.00
2023-02-13T04:48:05.639Z,98160.00
2023-02-13T04:52:10.474Z,98165.00
2023-02-13T04:56:14.499Z,98159.00
2023-02-13T05:00:18.063Z,98160.00
2023-02-13T05:04:34.971Z,98156.00
2023-02-13T05:08:38.091Z,98169.00
2023-02-13T05:12:43.547Z,98157.00
2023-02-13T05:16:49.823Z,98156.00
2023-02-13T05:21:08.078Z,98165.00
2023-02-13T05:25:13.756Z,98163.00
2023-02-13T05:29:26.140Z,98174.00
2023-02-13T05:33:29.324Z,98179.00
2023-02-13T05:37:33.707Z,98180.00
2023-02-13T05:41:37.119Z,98181.00
2023-02-13T05:45:40.094Z,98177.00
2023-02-13T05:49:49.120Z,98185.00
2023-02-13T05:53:53.590Z,98194.00
2023-02-13T05:57:59.700Z,98191.00
2023-02-13T06:02:02.789Z,98195.00
2023-02-13T06:06:12.841Z,98195.00
2023-02-13T06:10:19.967Z,98198.00
2023-02-13T06:14:25.288Z,98203.00
2023-02-13T06:18:31.511Z,98209.00
2023-02-13T06:22:34.536Z,98215.00
2023-02-13T06:26:38.941Z,98222.00
2023-02-13T06:30:42.234Z,98223.00
2023-02-13T06:34:45.519Z,98224.00
2023-02-13T06:38:54.356Z,98230.00
2023-02-13T06:42:59.294Z,98227.00
2023-02-13T06:47:02.425Z,98238.00
2023-02-13T06:51:06.104Z,98236.00
2023-02-13T06:55:10.956Z,98241.00
2023-02-13T06:59:15.373Z,98241.00
2023-02-13T07:03:21.148Z,98249.00
2023-02-13T07:07:25.292Z,98244.00
2023-02-13T07:11:31.507Z,98242.00
2023-02-13T07:15:38.684Z,98243.00
2023-02-13T07:19:43.588Z,98245.00
2023-02-13T07:23:46.612Z,98256.00
2023-02-13T07:27:49.889Z,98255.00
2023-02-13T07:31:54.618Z,98260.00
2023-02-13T07:35:59.932Z,98261.00
2023-02-13T07:40:05.643Z,98259.00
2023-02-13T07:44:09.501Z,98258.00
2023-02-13T07:48:14.090Z,98257.00
2023-02-13T07:52:17.079Z,98257.00
2023-02-13T07:56:20.426Z,98254.00
2023-02-13T08:00:24.490Z,98254.00
2023-02-13T08:04:29.004Z,98260.00
2023-02-13T08:08:32.800Z,98250.00
2023-02-13T08:12:37.444Z,98256.00
2023-02-13T08:16:43.122Z,98246.00
2023-02-13T08:20:47.544Z,98251.00
2023-02-13T08:24:52.478Z,98257.00
2023-02-13T08:29:00.797Z,98260.00
2023-02-13T08:33:03.835Z,98266.00
2023-02-13T08:37:08.865Z,98272.00
2023-02-13T08:41:13.904Z,98273.00
2023-02-13T08:45:17.275Z,98269.00
2023-02-13T08:49:22.331Z,98270.00
2023-02-13T08:53:26.781Z,98280.00
2023-02-13T08:57:31.287Z,98289.00
2023-02-13T09:01:38.985Z,98283.00
2023-02-13T09:05:42.072Z,98279.00
2023-02-13T09:09:46.466Z,98286.00
2023-02-13T09:13:49.624Z,98283.00
2023-02-13T09:17:53.991Z,98286.00
2023-02-13T09:21:58.632Z,98281.00
2023-02-13T09:26:10.628Z,98279.00
2023-02-13T09:30:23.150Z,98281.00
2023-02-13T09:34:26.620Z,98275.00
2023-02-13T09:38:30.644Z,98290.00
2023-02-13T09:42:42.629Z,98288.00
2023-02-13T09:46:46.338Z,98288.00
2023-02-13T09:50:54.507Z,98280.00
2023-02-13T09:54:59.663Z,98283.00
2023-02-13T09:59:15.265Z,98288.00
2023-02-13T10:03:29.600Z,98283.00
2023-02-13T10:07:41.070Z,98289.00
2023-02-13T10:12:09.848Z,98275.00
2023-02-13T10:16:20.464Z,98288.00
2023-02-13T10:20:34.097Z,98286.00
2023-02-13T10:24:42.892Z,98295.00
2023-02-13T10:29:10.936Z,98288.00
2023-02-13T10:33:22.113Z,98292.00
2023-02-13T10:37:25.393Z,98291.00
2023-02-13T10:41:45.524Z,98289.00
2023-02-13T10:45:58.653Z,98289.00
2023-02-13T10:50:22.262Z,98289.00
2023-02-13T10:54:45.240Z,98293.00
2023-02-13T10:59:01.230Z,98288.00
2023-02-13T11:03:04.924Z,98286.00
2023-02-13T11:07:16.308Z,98283.00
2023-02-13T11:11:38.929Z,98279.00
2023-02-13T11:15:42.347Z,98272.00
2023-02-13T11:19:52.191Z,98278.00
2023-02-13T11:24:01.101Z,98285.00
2023-02-13T11:28:10.429Z,98280.00
2023-02-13T11:32:22.095Z,98283.00
2023-02-13T11:36:31.245Z,98282.00
2023-02-13T11:40:36.180Z,98290.00
2023-02-13T11:44:39.576Z,98283.00
2023-02-13T11:48:45.332Z,98290.00
2023-02-13T11:52:56.685Z,98287.00
2023-02-13T11:57:06.410Z,98284.00
2023-02-13T12:01:22.311Z,98283.00
2023-02-13T12:05:27.109Z,98280.00
2023-02-13T12:09:31.691Z,98280.00
2023-02-13T12:13:40.060Z,98269.00
2023-02-13T12:17:46.379Z,98272.00
2023-02-13T12:22:10.549Z,98273.00
2023-02-13T12:26:30.661Z,98269.00
2023-02-13T12:31:02.396Z,98257.00
2023-02-13T12:35:46.335Z,98246.00
2023-02-13T12:40:05.028Z,98243.00
2023-02-13T12:44:44.189Z,98242.00
2023-02-13T12:48:55.922Z,98248.00
2023-02-13T12:53:36.064Z,98240.00
2023-02-13T12:57:53.238Z,98239.00
2023-02-13T13:02:25.348Z,98231.00
2023-02-13T13:06:50.837Z,98237.00
2023-02-13T13:11:09.442Z,98226.00
2023-02-13T13:15:22.391Z,98225.00
2023-02-13T13:19:33.528Z,98224.00
2023-02-13T13:23:44.084Z,98225.00
2023-02-13T13:27:53.829Z,98230.00
2023-02-13T13:32:01.184Z,98220.00
2023-02-13T13:36:14.011Z,98221.00
2023-02-13T13:40:34.179Z,98220.00
2023-02-13T13:45:12.082Z,98215.00
2023-02-13T13:49:28.028Z,98223.00
2023-02-13T13:53:31.152Z,98220.00
2023-02-13T13:58:03.851Z,98204.00
2023-02-13T14:02:52.681Z,98213.00
2023-02-13T14:07:26.530Z,98216.00
2023-02-13T14:11:45.737Z,98233.00
2023-02-13T14:15:55.256Z,98226.00
2023-02-13T14:20:06.614Z,98222.00
2023-02-13T14:24:14.250Z,98214.00
2023-02-13T14:28:25.662Z,98225.00
2023-02-13T14:32:32.463Z,98226.00
2023-02-13T14:36:37.854Z,98218.00
2023-02-13T14:40:48.796Z,98218.00
2023-02-13T14:44:52.971Z,98212.00
2023-02-13T14:49:05.385Z,98218.00
2023-02-13T14:53:16.921Z,98217.00
2023-02-13T14:57:26.044Z,98206.00
2023-02-13T15:01:34.681Z,98204.00
2023-02-13T15:05:40.291Z,98204.00
2023-02-13T15:09:49.578Z,98204.00
2023-02-13T15:13:54.111Z,98195.00
2023-02-13T15:18:03.548Z,98211.00
2023-02-13T15:22:09.280Z,98201.00
2023-02-13T15:26:24.000Z,98197.00
2023-02-13T15:30:30.226Z,98198.00
2023-02-13T15:34:37.568Z,98194.00
2023-02-13T15:38:43.003Z,98205.00
2023-02-13T15:42:46.613Z,98207.00
2023-02-13T15:46:52.784Z,98203.00
2023-02-13T15:50:59.789Z,98207.00
2023-02-13T15:55:02.996Z,98199.00
2023-02-13T15:59:06.118Z,98200.00
2023-02-13T16:03:18.661Z,98197.00
2023-02-13T16:07:26.378Z,98209.00
2023-02-13T16:11:37.112Z,98201.00
2023-02-13T16:15:44.332Z,98201.00
2023-02-13T16:19:57.648Z,98191.00
2023-02-13T16:24:05.431Z,98185.00
2023-02-13T16:28:19.561Z,98185.00
2023-02-13T16:32:29.188Z,98188.00
2023-02-13T16:36:35.900Z,98190.00
2023-02-13T16:40:41.293Z,98192.00
2023-02-13T16:44:50.181Z,98204.00
2023-02-13T16:49:15.828Z,98198.00
2023-02-13T16:53:21.493Z,98203.00
2023-02-13T16:57:31.328Z,98212.00
2023-02-13T17:01:38.321Z,98205.00
2023-02-13T17:05:41.437Z,98214.00
2023-02-13T17:09:53.969Z,98208.00
2023-02-13T17:13:56.980Z,98211.00
2023-02-13T17:18:00.364Z,98211.00
2023-02-13T17:22:04.167Z,98218.00
2023-02-13T17:26:10.438Z,98230.00
2023-02-13T17:30:15.835Z,98215.00
2023-02-13T17:34:19.035Z,98227.00
2023-02-13T17:38:23.397Z,98218.00
2023-02-13T17:42:29.576Z,98232.00
2023-02-13T17:46:34.232Z,98225.00
2023-02-13T17:50:38.823Z,98226.00
2023-02-13T17:54:42.099Z,98225.00
2023-02-13T17:58:47.613Z,98221.00
2023-02-13T18:02:54.596Z,98208.00
2023-02-13T18:06:58.322Z,98217.00
2023-02-13T18:11:10.147Z,98212.00
2023-02-13T18:15:17.042Z,98208.00
2023-02-13T18:19:21.128Z,98209.00
2023-02-13T18:23:27.006Z,98203.00
2023-02-13T18:27:30.371Z,98210.00
2023-02-13T18:31:34.860Z,98199.00
2023-02-13T18:35:37.968Z,98194.00
2023-02-13T18:39:43.845Z,98192.00
2023-02-13T18:43:47.030Z,98197.00
2023-02-13T18:47:51.579Z,98194.00
2023-02-13T18:51:57.888Z,98213.00
2023-02-13T18:56:02.137Z,98209.00
2023-02-13T19:00:07.462Z,98213.00
2023-02-13T19:04:15.607Z,98203.00
2023-02-13T19:08:23.401Z,98215.00
2023-02-13T19:12:26.476Z,98212.00
2023-02-13T19:16:31.417Z,98218.00
2023-02-13T19:20:38.494Z,98214.00
2023-02-13T19:24:42.041Z,98215.00
2023-02-13T19:28:45.475Z,98207.00
2023-02-13T19:32:51.811Z,98211.00
2023-02-13T19:36:58.866Z,98194.00
2023-02-13T19:41:05.409Z,98208.00
2023-02-13T19:45:10.265Z,98205.00
2023-02-13T19:49:13.354Z,98204.00
2023-02-13T19:53:18.075Z,98200.00
2023-02-13T19:57:21.942Z,98204.00
2023-02-13T20:01:27.590Z,98199.00
2023-02-13T20:05:33.338Z,98208.00
2023-02-13T20:09:38.875Z,98202.00
2023-02-13T20:13:43.237Z,98207.00
2023-02-13T20:17:52.277Z,98205.00
2023-02-13T20:22:02.580Z,98203.00
2023-02-13T20:26:11.425Z,98201.00
2023-02-13T20:30:21.071Z,98210.00
2023-02-13T20:34:24.518Z,98202.00
2023-02-13T20:38:29.288Z,98195.00
2023-02-13T20:42:36.383Z,98196.00
2023-02-13T20:46:41.189Z,98180.00
2023-02-13T20:50:45.531Z,98169.00
2023-02-13T20:54:52.377Z,98178.00
2023-02-13T20:58:59.640Z,98168.00
2023-02-13T21:03:02.702Z,98164.00
2023-02-13T21:07:09.304Z,98166.00
2023-02-13T21:11:16.995Z,98164.00
2023-02-13T21:15:24.288Z,98168.00
2023-02-13T21:19:27.400Z,98163.00
2023-02-13T21:23:30.397Z,98165.00
2023-02-13T21:27:33.457Z,98163.00
2023-02-13T21:31:39.671Z,98159.00
2023-02-13T21:35:44.020Z,98160.00
2023-02-13T21:39:48.172Z,98169.00
2023-02-13T21:43:57.605Z,98166.00
2023-02-13T21:48:02.378Z,98168.00
2023-02-13T21:52:05.782Z,98160.00
2023-02-13T21:56:13.651Z,98161.00
2023-02-13T22:00:22.562Z,98168.00
2023-02-13T22:04:28.103Z,98167.00
2023-02-13T22:08:31.148Z,98161.00
2023-02-13T22:12:34.380Z,98162.00
2023-02-13T22:16:44.655Z,98161.00
2023-02-13T22:20:49.150Z,98162.00
2023-02-13T22:24:52.170Z,98165.00
2023-02-13T22:28:56.243Z,98165.00
2023-02-13T22:32:59.238Z,98158.00
2023-02-13T22:37:06.563Z,98149.00
2023-02-13T22:41:14.042Z,98152.00
2023-02-13T22:45:17.906Z,98154.00
2023-02-13T22:49:23.490Z,98147.00
2023-02-13T22:53:31.477Z,98153.00
2023-02-13T22:57:34.539Z,98141.00
2023-02-13T23:01:40.872Z,98158.00
2023-02-13T23:05:45.822Z,98142.00
2023-02-13T23:09:51.796Z,98145.00
2023-02-13T23:13:54.918Z,98150.00
2023-02-13T23:18:18.157Z,98151.00
2023-02-13T23:22:22.735Z,98157.00
2023-02-13T23:26:33.680Z,98156.00
2023-02-13T23:30:44.328Z,98155.00
2023-02-13T23:34:49.958Z,98166.00
2023-02-13T23:38:53.068Z,98159.00
2023-02-13T23:43:03.035Z,98161.00
2023-02-13T23:47:09.714Z,98155.00
2023-02-13T23:51:14.116Z,98153.00
2023-02-13T23:55:17.412Z,98148.00
2023-02-13T23:59:25.504Z,98142.00
